Time;durP1;ratioP1;P1;durP2;ratioP2;P2;SDS_P1;SDS_P2;PMS_P1;PMS_P2;Temp;Humidity;BMP_temperature;BMP_pressure;BME280_temperature;BME280_humidity;BME280_pressure;Samples;Min_cycle;Max_cycle;Signal;HPM_P1;HPM_P2
2022/05/31 00:02:07;;;;;;;2.50;1.92;;;12.50;95.20;;;;;;4950551;29;20023;-45
2022/05/31 00:04:33;;;;;;;2.88;1.75;;;12.50;95.30;;;;;;4949602;29;20039;-44
2022/05/31 00:06:59;;;;;;;1.88;1.77;;;12.40;95.30;;;;;;4949381;28;20019;-44
2022/05/31 00:09:25;;;;;;;2.75;1.70;;;12.40;95.30;;;;;;4949796;28;20024;-45
2022/05/31 00:11:51;;;;;;;2.33;1.60;;;12.40;95.40;;;;;;4950497;29;20086;-44
2022/05/31 00:14:17;;;;;;;2.55;1.63;;;12.30;95.40;;;;;;4949311;28;20039;-44
2022/05/31 00:16:45;;;;;;;2.10;1.55;;;12.30;95.50;;;;;;4949751;28;20018;-45
2022/05/31 00:19:12;;;;;;;2.65;1.98;;;12.30;95.50;;;;;;4950182;28;20023;-44
2022/05/31 00:21:45;;;;;;;2.30;2.10;;;12.30;95.60;;;;;;4949263;28;20089;-44
2022/05/31 00:24:15;;;;;;;3.72;1.90;;;12.20;95.60;;;;;;4950848;28;20110;-45
2022/05/31 00:26:41;;;;;;;3.55;2.17;;;12.20;95.70;;;;;;4950059;29;20031;-45
2022/05/31 00:29:08;;;;;;;3.80;2.10;;;12.20;95.80;;;;;;4949068;29;20030;-45
2022/05/31 00:31:35;;;;;;;4.05;2.05;;;12.20;95.90;;;;;;4949306;28;20135;-45
2022/05/31 00:34:01;;;;;;;2.65;2.13;;;12.20;95.90;;;;;;4948913;28;20039;-44
2022/05/31 00:36:27;;;;;;;2.85;2.10;;;12.20;95.90;;;;;;4949451;29;20175;-45
2022/05/31 00:38:54;;;;;;;2.58;1.98;;;12.20;96.00;;;;;;4949665;29;20125;-44
2022/05/31 00:41:25;;;;;;;2.63;2.22;;;12.10;96.00;;;;;;4948481;28;20466;-45
2022/05/31 00:43:57;;;;;;;2.47;1.58;;;12.10;96.00;;;;;;4949655;28;20082;-44
2022/05/31 00:46:26;;;;;;;2.88;1.73;;;12.10;96.00;;;;;;4949179;28;20475;-46
2022/05/31 00:48:56;;;;;;;2.03;1.92;;;12.10;96.10;;;;;;4948813;29;20039;-45
2022/05/31 00:51:23;;;;;;;2.70;1.90;;;12.00;96.10;;;;;;4949386;28;20126;-44
2022/05/31 00:53:53;;;;;;;2.47;1.80;;;12.00;96.10;;;;;;4949057;28;20039;-44
2022/05/31 00:56:21;;;;;;;2.05;1.80;;;12.00;96.20;;;;;;4948655;28;20154;-44
2022/05/31 00:58:53;;;;;;;2.63;2.08;;;12.00;96.20;;;;;;4949197;28;20089;-44
2022/05/31 01:01:19;;;;;;;2.22;2.00;;;11.90;96.20;;;;;;4949566;28;20491;-44
2022/05/31 01:03:45;;;;;;;3.15;2.03;;;11.90;96.30;;;;;;4948312;29;20023;-44
2022/05/31 01:06:11;;;;;;;2.20;2.00;;;11.90;96.40;;;;;;4949255;28;20042;-45
2022/05/31 01:08:42;;;;;;;2.75;2.20;;;11.90;96.50;;;;;;4948522;28;20686;-45
2022/05/31 01:11:08;;;;;;;2.38;1.70;;;11.80;96.50;;;;;;4948713;28;20106;-44
2022/05/31 01:13:34;;;;;;;5.53;2.38;;;11.80;96.50;;;;;;4948763;28;20046;-45
2022/05/31 01:16:09;;;;;;;2.17;1.95;;;11.80;96.60;;;;;;4949340;28;20023;-44
2022/05/31 01:18:34;;;;;;;2.53;1.90;;;11.70;96.60;;;;;;4948558;29;20111;-44
2022/05/31 01:21:00;;;;;;;3.10;2.80;;;11.70;96.60;;;;;;4948938;29;20102;-44
2022/05/31 01:23:31;;;;;;;1.85;1.65;;;11.70;96.60;;;;;;4948440;29;20530;-44
2022/05/31 01:26:22;;;;;;;2.63;1.85;;;11.70;96.70;;;;;;4949191;29;20031;-45
2022/05/31 01:29:01;;;;;;;3.28;2.30;;;11.60;96.70;;;;;;4947842;28;20161;-44
2022/05/31 01:31:42;;;;;;;3.53;2.10;;;11.60;96.80;;;;;;4944832;29;20727;-44
2022/05/31 01:34:20;;;;;;;2.35;2.15;;;11.50;96.70;;;;;;4948756;29;20146;-44
2022/05/31 01:36:49;;;;;;;2.20;2.00;;;11.50;96.70;;;;;;4948783;28;20038;-44
2022/05/31 01:39:28;;;;;;;2.35;2.13;;;11.50;96.80;;;;;;4947574;29;20615;-44
2022/05/31 01:42:01;;;;;;;3.10;1.90;;;11.50;96.80;;;;;;4948826;29;20020;-44
2022/05/31 01:44:30;;;;;;;3.40;1.90;;;11.50;96.80;;;;;;4930569;29;20036;-44
2022/05/31 01:46:58;;;;;;;2.65;2.25;;;11.50;96.80;;;;;;4948452;29;20019;-44
2022/05/31 01:49:27;;;;;;;4.22;2.10;;;11.50;96.90;;;;;;4948173;28;20031;-44
2022/05/31 01:51:53;;;;;;;2.50;2.30;;;11.50;96.90;;;;;;4947924;28;20074;-44
2022/05/31 01:54:19;;;;;;;4.07;2.58;;;11.50;97.00;;;;;;4947785;28;20039;-44
2022/05/31 01:56:49;;;;;;;4.15;2.20;;;11.40;97.10;;;;;;4947698;29;20058;-44
2022/05/31 01:59:16;;;;;;;6.05;2.38;;;11.40;97.20;;;;;;4947743;28;20483;-45
2022/05/31 02:01:42;;;;;;;2.50;2.05;;;11.50;97.30;;;;;;4947927;28;20028;-44
2022/05/31 02:04:09;;;;;;;3.50;2.40;;;11.50;97.30;;;;;;4948595;29;20031;-45
2022/05/31 02:06:37;;;;;;;2.30;2.10;;;11.50;97.30;;;;;;4947056;28;20487;-45
2022/05/31 02:09:05;;;;;;;2.58;2.30;;;11.50;97.30;;;;;;4948443;28;20090;-45
2022/05/31 02:11:30;;;;;;;3.35;2.35;;;11.50;97.30;;;;;;4947403;28;20023;-35
2022/05/31 02:13:58;;;;;;;2.72;2.15;;;11.50;97.30;;;;;;4947867;28;20050;-34
2022/05/31 02:16:24;;;;;;;2.53;2.13;;;11.50;97.30;;;;;;4947394;28;20019;-35
2022/05/31 02:21:37;;;;;;;2.33;2.05;;;11.50;97.20;;;;;;4947585;28;20050;-35
2022/05/31 02:24:08;;;;;;;2.88;2.10;;;11.50;97.20;;;;;;4948231;29;20106;-35
2022/05/31 02:26:34;;;;;;;4.03;2.28;;;11.60;97.20;;;;;;4946446;29;20023;-34
2022/05/31 02:28:59;;;;;;;2.20;2.03;;;11.60;97.20;;;;;;4948233;28;20077;-34
2022/05/31 02:31:26;;;;;;;3.97;2.28;;;11.60;97.20;;;;;;4947365;28;20035;-35
2022/05/31 02:33:58;;;;;;;4.20;2.63;;;11.60;97.20;;;;;;4947174;28;20043;-34
2022/05/31 02:36:24;;;;;;;2.92;2.40;;;11.70;97.20;;;;;;4947404;29;20023;-36
2022/05/31 02:38:49;;;;;;;3.85;2.38;;;11.60;97.10;;;;;;4947942;28;20027;-35
2022/05/31 02:41:15;;;;;;;5.05;2.60;;;11.70;97.10;;;;;;4946535;28;20451;-35
2022/05/31 02:43:40;;;;;;;2.88;2.40;;;11.70;97.10;;;;;;4947100;29;20051;-36
2022/05/31 02:46:06;;;;;;;3.08;2.55;;;11.70;97.10;;;;;;4948162;29;20548;-36
2022/05/31 02:48:32;;;;;;;3.47;2.60;;;11.70;97.10;;;;;;4946554;28;20417;-35
2022/05/31 02:50:58;;;;;;;3.63;2.55;;;11.70;97.10;;;;;;4947618;29;20509;-35
2022/05/31 02:53:23;;;;;;;3.97;3.08;;;11.70;97.10;;;;;;4947216;29;20103;-35
2022/05/31 02:55:49;;;;;;;4.35;2.50;;;11.60;97.20;;;;;;4946593;29;20118;-35
2022/05/31 02:58:14;;;;;;;4.15;3.17;;;11.60;97.30;;;;;;4947157;29;20171;-35
2022/05/31 03:00:40;;;;;;;4.18;2.70;;;11.50;97.40;;;;;;4947110;29;20031;-35
2022/05/31 03:03:05;;;;;;;3.63;3.17;;;11.50;97.40;;;;;;4946360;28;20043;-34
2022/05/31 03:05:32;;;;;;;3.40;3.10;;;11.50;97.50;;;;;;4947199;29;20035;-36
2022/05/31 03:08:00;;;;;;;4.53;3.05;;;11.50;97.60;;;;;;4947067;28;20106;-34
2022/05/31 03:10:33;;;;;;;4.40;3.22;;;11.50;97.60;;;;;;4946446;28;20051;-34
2022/05/31 03:12:58;;;;;;;3.28;2.97;;;11.50;97.70;;;;;;4948065;29;20027;-35
2022/05/31 03:15:25;;;;;;;5.82;3.00;;;11.50;97.70;;;;;;4947179;28;20045;-35
2022/05/31 03:17:52;;;;;;;4.05;2.70;;;11.50;97.70;;;;;;4946805;29;20023;-35
2022/05/31 03:20:46;;;;;;;8.82;3.05;;;11.40;97.60;;;;;;4946997;29;20035;-35
2022/05/31 03:23:36;;;;;;;4.55;3.20;;;11.40;97.70;;;;;;4947128;28;20031;-35
2022/05/31 03:26:05;;;;;;;3.72;3.08;;;11.40;97.80;;;;;;4948200;29;20031;-34
2022/05/31 03:28:33;;;;;;;3.25;2.95;;;11.40;97.80;;;;;;4946786;28;20399;-35
2022/05/31 03:31:00;;;;;;;2.88;2.60;;;11.40;97.70;;;;;;4946832;28;20051;-37
2022/05/31 03:33:26;;;;;;;3.08;2.65;;;11.50;97.70;;;;;;4946633;29;20141;-35
2022/05/31 03:35:51;;;;;;;4.13;3.13;;;11.40;97.60;;;;;;4936951;29;20457;-34
2022/05/31 03:38:17;;;;;;;3.40;2.78;;;11.40;97.60;;;;;;4945964;29;20079;-34
2022/05/31 03:41:01;;;;;;;5.15;3.05;;;11.40;97.60;;;;;;4947338;29;20511;-34
2022/05/31 03:43:30;;;;;;;3.97;3.10;;;11.40;97.70;;;;;;4946545;28;20126;-35
2022/05/31 03:45:56;;;;;;;4.03;3.10;;;11.40;97.70;;;;;;4946394;29;20110;-37
2022/05/31 03:48:22;;;;;;;4.43;3.42;;;11.30;97.70;;;;;;4947219;29;20327;-36
2022/05/31 03:51:01;;;;;;;5.15;3.70;;;11.30;97.70;;;;;;4946515;28;20383;-35
2022/05/31 03:53:27;;;;;;;3.75;3.45;;;11.30;97.90;;;;;;4950147;28;20031;-34
2022/05/31 03:55:52;;;;;;;6.30;3.85;;;11.30;97.90;;;;;;4950261;28;20016;-35
2022/05/31 03:58:19;;;;;;;7.18;3.58;;;11.30;98.00;;;;;;4949334;29;20047;-36
2022/05/31 04:00:44;;;;;;;5.43;3.45;;;11.30;98.00;;;;;;4949764;28;20538;-35
2022/05/31 04:03:10;;;;;;;6.15;3.60;;;11.30;98.00;;;;;;4950901;29;20044;-34
2022/05/31 04:05:35;;;;;;;5.47;3.60;;;11.30;98.00;;;;;;4949033;29;20027;-34
2022/05/31 04:08:11;;;;;;;5.65;3.85;;;11.30;98.00;;;;;;4950095;29;20015;-35
2022/05/31 04:10:37;;;;;;;4.93;3.95;;;11.30;98.10;;;;;;4949860;28;20031;-35
2022/05/31 04:13:03;;;;;;;4.28;3.83;;;11.30;98.10;;;;;;4949670;29;20130;-36
2022/05/31 04:15:29;;;;;;;4.38;3.90;;;11.30;98.10;;;;;;4950106;28;20016;-36
2022/05/31 04:17:59;;;;;;;5.50;3.85;;;11.30;98.10;;;;;;4950395;28;20035;-37
2022/05/31 04:20:25;;;;;;;4.63;3.58;;;11.30;98.00;;;;;;4949134;28;20024;-35
2022/05/31 04:22:50;;;;;;;5.68;3.85;;;11.30;98.00;;;;;;4950547;28;20040;-36
2022/05/31 04:25:16;;;;;;;4.32;3.90;;;11.40;98.00;;;;;;4949484;28;20624;-34
2022/05/31 04:27:41;;;;;;;5.53;3.67;;;11.40;98.10;;;;;;4949128;28;20418;-34
2022/05/31 04:30:07;;;;;;;4.88;3.67;;;11.40;98.10;;;;;;4950272;29;20070;-34
2022/05/31 04:32:33;;;;;;;4.13;3.67;;;11.30;98.20;;;;;;4948848;29;20494;-35
2022/05/31 04:34:58;;;;;;;4.05;3.65;;;11.40;98.20;;;;;;4949179;29;20058;-34
2022/05/31 04:37:24;;;;;;;5.15;3.72;;;11.40;98.20;;;;;;4949092;29;20059;-35
2022/05/31 04:39:50;;;;;;;4.70;3.80;;;11.40;98.30;;;;;;4949943;28;20391;-36
2022/05/31 04:42:16;;;;;;;5.90;4.03;;;11.40;98.30;;;;;;4948537;29;20094;-35
2022/05/31 04:44:41;;;;;;;6.10;4.00;;;11.50;98.30;;;;;;4950107;28;20106;-35
2022/05/31 04:47:07;;;;;;;4.53;4.13;;;11.50;98.20;;;;;;4949261;28;20395;-35
2022/05/31 04:49:33;;;;;;;6.55;4.90;;;11.60;98.20;;;;;;4949215;29;20462;-35
2022/05/31 04:51:59;;;;;;;5.25;4.72;;;11.60;98.10;;;;;;4949456;29;20061;-34
2022/05/31 04:54:28;;;;;;;6.82;5.07;;;11.60;98.10;;;;;;4948015;29;20099;-35
2022/05/31 04:56:54;;;;;;;4.93;4.40;;;11.70;98.10;;;;;;4949287;28;20109;-34
2022/05/31 04:59:20;;;;;;;5.40;4.10;;;11.70;98.10;;;;;;4949162;29;20075;-35
2022/05/31 05:01:46;;;;;;;4.85;3.97;;;11.70;98.00;;;;;;4947694;28;20027;-35
2022/05/31 05:04:12;;;;;;;7.00;4.20;;;11.80;98.00;;;;;;4949090;29;20035;-35
2022/05/31 05:06:38;;;;;;;5.38;4.50;;;11.80;98.00;;;;;;4948860;28;20027;-35
2022/05/31 05:09:05;;;;;;;5.68;5.13;;;11.80;98.00;;;;;;4948643;29;20053;-36
2022/05/31 05:11:32;;;;;;;7.75;4.90;;;11.90;98.00;;;;;;4948528;28;20020;-36
2022/05/31 05:13:58;;;;;;;7.15;4.68;;;11.90;98.00;;;;;;4949110;28;20056;-35
2022/05/31 05:16:24;;;;;;;6.47;4.90;;;12.00;98.00;;;;;;4948231;28;20086;-35
2022/05/31 05:18:50;;;;;;;6.32;4.82;;;12.00;98.00;;;;;;4949198;28;20027;-36
2022/05/31 05:21:16;;;;;;;5.63;4.60;;;12.10;98.00;;;;;;4948615;29;20024;-36
2022/05/31 05:23:42;;;;;;;9.00;4.82;;;12.10;97.90;;;;;;4947927;28;20522;-36
2022/05/31 05:26:09;;;;;;;5.22;4.72;;;12.20;97.90;;;;;;4949442;28;20027;-34
2022/05/31 05:31:28;;;;;;;5.13;4.43;;;12.30;97.90;;;;;;4948752;29;20054;-35
2022/05/31 05:33:55;;;;;;;7.03;5.10;;;12.30;97.90;;;;;;4948353;28;20399;-35
2022/05/31 05:36:21;;;;;;;6.85;4.75;;;12.30;97.90;;;;;;4948468;29;20020;-35
2022/05/31 05:38:47;;;;;;;6.72;4.57;;;12.30;97.90;;;;;;4948744;29;20069;-36
2022/05/31 05:41:13;;;;;;;6.85;4.57;;;12.40;97.90;;;;;;4948448;28;20090;-35
2022/05/31 05:43:40;;;;;;;5.32;4.82;;;12.40;97.90;;;;;;4948115;29;20060;-35
2022/05/31 05:46:12;;;;;;;6.68;4.53;;;12.40;97.90;;;;;;4948090;28;20110;-35
2022/05/31 05:48:40;;;;;;;6.85;4.60;;;12.50;97.90;;;;;;4946165;29;20055;-35
2022/05/31 05:51:35;;;;;;;6.65;4.30;;;12.50;98.20;;;;;;4946668;28;20134;-35
2022/05/31 05:54:03;;;;;;;5.90;4.45;;;12.60;98.00;;;;;;4942338;29;20047;-36
2022/05/31 05:56:29;;;;;;;5.72;4.65;;;12.50;98.00;;;;;;4945975;28;20052;-35
2022/05/31 05:58:55;;;;;;;5.68;4.38;;;12.60;98.00;;;;;;4946342;29;20046;-35
2022/05/31 06:01:30;;;;;;;7.10;5.13;;;12.70;98.00;;;;;;4947864;28;20035;-35
2022/05/31 06:04:01;;;;;;;5.97;4.68;;;12.70;98.00;;;;;;4947231;28;20398;-35
2022/05/31 06:06:30;;;;;;;5.85;4.70;;;12.80;97.90;;;;;;4945664;28;20507;-35
2022/05/31 06:09:07;;;;;;;5.63;4.63;;;12.80;97.90;;;;;;4947731;29;20031;-36
2022/05/31 06:11:47;;;;;;;5.40;4.35;;;12.90;97.80;;;;;;4946080;28;20123;-34
2022/05/31 06:14:19;;;;;;;4.20;3.80;;;13.00;97.80;;;;;;4946963;28;20074;-35
2022/05/31 06:16:59;;;;;;;5.32;4.03;;;13.10;97.80;;;;;;4947258;28;20034;-35
2022/05/31 06:19:33;;;;;;;7.32;4.80;;;13.10;97.70;;;;;;4945746;28;20126;-36
2022/05/31 06:22:00;;;;;;;4.85;4.28;;;13.20;97.70;;;;;;4947004;28;20031;-35
2022/05/31 06:24:29;;;;;;;6.00;4.53;;;13.30;97.70;;;;;;4946424;29;20530;-37
2022/05/31 06:26:55;;;;;;;6.35;4.45;;;13.30;97.60;;;;;;4946166;28;20031;-34
2022/05/31 06:29:20;;;;;;;7.13;4.57;;;13.30;97.60;;;;;;4946197;29;20027;-34
2022/05/31 06:31:46;;;;;;;6.95;4.70;;;13.40;97.70;;;;;;4946470;29;20474;-35
2022/05/31 06:34:12;;;;;;;6.72;5.10;;;13.40;97.70;;;;;;4945976;29;20027;-35
2022/05/31 06:36:39;;;;;;;5.47;4.78;;;13.50;97.70;;;;;;4947192;28;20026;-35
2022/05/31 06:39:05;;;;;;;8.50;5.03;;;13.40;97.70;;;;;;4947578;28;20027;-35
2022/05/31 06:41:31;;;;;;;8.57;5.50;;;13.50;97.80;;;;;;4944513;28;20427;-35
2022/05/31 06:43:59;;;;;;;6.03;4.97;;;13.50;97.80;;;;;;4947830;28;20027;-35
2022/05/31 06:46:24;;;;;;;5.97;4.53;;;13.50;97.80;;;;;;4947083;28;20028;-35
2022/05/31 06:48:50;;;;;;;6.47;4.88;;;13.60;97.90;;;;;;4947105;29;20031;-35
2022/05/31 06:56:48;;;;;;;7.47;5.38;;;13.60;97.90;;;;;;4946761;29;20449;-35
2022/05/31 06:56:59;;;;;;;6.15;4.70;;;13.70;97.80;;;;;;4946729;29;20042;-35
2022/05/31 06:59:25;;;;;;;6.78;4.95;;;13.80;97.80;;;;;;4946613;28;20030;-35
2022/05/31 07:01:53;;;;;;;6.78;5.10;;;13.90;97.70;;;;;;4946858;29;20082;-35
2022/05/31 07:04:18;;;;;;;7.88;4.43;;;13.90;97.60;;;;;;4947420;28;20039;-35
2022/05/31 07:06:47;;;;;;;6.78;4.70;;;14.00;97.60;;;;;;4947064;29;20458;-35
2022/05/31 07:09:12;;;;;;;7.05;4.93;;;14.10;97.60;;;;;;4946782;29;20040;-35
2022/05/31 07:11:39;;;;;;;7.18;5.38;;;14.10;97.50;;;;;;4946646;29;20502;-35
2022/05/31 07:14:05;;;;;;;7.93;5.40;;;14.20;97.80;;;;;;4947419;28;20035;-36
2022/05/31 07:16:30;;;;;;;7.10;5.13;;;14.20;97.40;;;;;;4945825;29;20546;-35
2022/05/31 07:18:57;;;;;;;5.80;4.63;;;14.30;97.40;;;;;;4947491;29;20054;-37
2022/05/31 07:21:23;;;;;;;5.25;4.22;;;14.30;97.40;;;;;;4947028;28;20035;-36
2022/05/31 07:23:49;;;;;;;4.85;4.40;;;14.30;97.30;;;;;;4946662;28;20534;-35
2022/05/31 07:26:14;;;;;;;6.38;4.82;;;14.30;97.30;;;;;;4949130;28;20026;-35
2022/05/31 07:28:40;;;;;;;6.72;5.25;;;14.30;97.30;;;;;;4951240;29;20050;-36
2022/05/31 07:31:06;;;;;;;6.35;4.80;;;14.30;97.20;;;;;;4950938;29;20105;-36
2022/05/31 07:33:32;;;;;;;7.35;5.55;;;14.30;97.20;;;;;;4950477;28;20066;-35
2022/05/31 07:35:57;;;;;;;5.63;5.00;;;14.30;97.20;;;;;;4949279;29;20403;-36
2022/05/31 07:38:23;;;;;;;6.88;4.57;;;14.30;97.10;;;;;;4950233;29;20031;-36
2022/05/31 07:40:53;;;;;;;6.93;4.72;;;14.40;97.20;;;;;;4950535;29;20034;-35
2022/05/31 07:43:19;;;;;;;5.78;4.78;;;14.40;97.10;;;;;;4950265;28;20058;-36
2022/05/31 07:45:44;;;;;;;4.90;4.13;;;14.50;97.10;;;;;;4950742;29;20063;-36
2022/05/31 07:48:10;;;;;;;6.38;5.10;;;14.60;97.10;;;;;;4950351;29;20130;-35
2022/05/31 07:50:36;;;;;;;7.13;5.15;;;14.60;97.00;;;;;;4949330;28;20024;-35
2022/05/31 07:53:03;;;;;;;6.85;5.10;;;14.70;96.90;;;;;;4950778;28;20028;-34
2022/05/31 07:55:30;;;;;;;8.32;5.03;;;14.80;96.80;;;;;;4949864;28;20042;-35
2022/05/31 08:00:40;;;;;;;5.47;4.15;;;15.00;96.70;;;;;;4949937;29;20082;-36
2022/05/31 08:03:08;;;;;;;5.40;4.88;;;15.10;96.60;;;;;;4950738;28;20023;-35
2022/05/31 08:05:37;;;;;;;5.03;4.53;;;15.20;96.60;;;;;;4949159;28;20074;-36
2022/05/31 08:08:03;;;;;;;6.13;4.93;;;15.30;96.50;;;;;;4950059;28;20020;-35
2022/05/31 08:10:29;;;;;;;5.10;4.60;;;15.40;96.40;;;;;;4950138;29;20488;-35
2022/05/31 08:12:55;;;;;;;7.03;4.63;;;15.40;96.40;;;;;;4949937;28;20066;-36
2022/05/31 08:15:20;;;;;;;5.95;4.75;;;15.50;96.30;;;;;;4950332;29;20035;-35
2022/05/31 08:17:46;;;;;;;5.00;4.07;;;15.50;96.20;;;;;;4949979;29;20102;-36
2022/05/31 08:20:13;;;;;;;5.72;4.57;;;15.60;96.30;;;;;;4949348;28;20042;-36
2022/05/31 08:22:39;;;;;;;5.03;4.50;;;15.70;96.20;;;;;;4949560;28;20023;-36
2022/05/31 08:25:06;;;;;;;4.82;4.15;;;15.70;96.20;;;;;;4949418;28;20043;-36
2022/05/31 08:27:34;;;;;;;6.13;4.03;;;15.80;96.10;;;;;;4949887;28;20383;-36
2022/05/31 08:30:01;;;;;;;4.95;4.30;;;15.80;96.10;;;;;;4949661;28;20479;-35
2022/05/31 08:32:27;;;;;;;5.75;3.97;;;15.80;96.00;;;;;;4949624;28;20450;-36
2022/05/31 08:34:52;;;;;;;4.95;4.45;;;15.90;96.00;;;;;;4947727;28;20383;-37
2022/05/31 08:37:18;;;;;;;4.03;3.50;;;15.90;95.90;;;;;;4949358;28;20028;-35
2022/05/31 08:39:43;;;;;;;5.43;3.63;;;15.90;95.90;;;;;;4948636;29;20027;-35
2022/05/31 08:42:13;;;;;;;5.22;4.20;;;15.80;95.90;;;;;;4949623;29;20207;-35
2022/05/31 08:44:59;;;;;;;4.97;4.47;;;15.90;95.90;;;;;;4948786;28;20039;-35
2022/05/31 08:47:42;;;;;;;6.20;4.57;;;15.80;95.90;;;;;;4948189;28;20038;-35
2022/05/31 08:53:10;;;;;;;5.05;4.22;;;15.80;95.90;;;;;;4930373;29;19933;-36
2022/05/31 08:59:09;;;;;;;5.50;4.45;;;15.90;95.80;;;;;;4949715;29;20102;-35
2022/05/31 09:01:45;;;;;;;5.78;4.22;;;15.80;95.90;;;;;;4927498;29;20059;-34
2022/05/31 09:04:14;;;;;;;5.72;4.50;;;15.90;95.90;;;;;;4949377;28;20042;-35
2022/05/31 09:06:47;;;;;;;4.60;3.80;;;15.90;95.90;;;;;;4948808;29;20447;-37
2022/05/31 09:09:19;;;;;;;3.80;3.40;;;16.00;95.90;;;;;;4948336;28;20028;-35
2022/05/31 09:11:56;;;;;;;3.05;2.75;;;16.10;95.90;;;;;;4949113;28;20494;-39
2022/05/31 09:14:50;;;;;;;3.38;3.08;;;16.10;95.80;;;;;;4947734;29;20051;-36
2022/05/31 09:17:28;;;;;;;3.90;3.50;;;16.20;95.80;;;;;;4938327;29;20020;-35
2022/05/31 09:20:00;;;;;;;5.82;4.20;;;16.20;95.80;;;;;;4949477;28;20058;-35
2022/05/31 09:22:26;;;;;;;8.63;4.40;;;16.30;95.80;;;;;;4936570;29;20033;-35
2022/05/31 09:24:51;;;;;;;4.43;3.90;;;16.40;95.70;;;;;;4949153;28;20031;-36
2022/05/31 09:27:23;;;;;;;4.85;3.80;;;16.40;95.70;;;;;;4948307;29;20118;-36
2022/05/31 09:30:04;;;;;;;4.10;3.70;;;16.40;95.60;;;;;;4948263;28;20094;-42
2022/05/31 09:32:45;;;;;;;3.47;3.15;;;16.40;95.50;;;;;;4945774;29;20031;-35
2022/05/31 09:35:29;;;;;;;4.97;3.45;;;16.40;95.50;;;;;;4948724;29;20043;-35
2022/05/31 09:38:10;;;;;;;3.55;3.25;;;16.50;95.30;;;;;;4948301;28;20106;-36
2022/05/31 09:40:47;;;;;;;3.58;3.13;;;16.60;95.20;;;;;;4947474;28;20656;-36
2022/05/31 09:43:45;;;;;;;5.55;3.00;;;16.70;95.10;;;;;;4947321;29;20023;-36
2022/05/31 09:46:47;;;;;;;2.72;2.28;;;16.90;94.90;;;;;;4946433;29;20035;-36
2022/05/31 09:49:25;;;;;;;4.67;3.13;;;17.10;94.70;;;;;;4948003;28;20443;-37
2022/05/31 09:51:53;;;;;;;3.88;2.83;;;17.30;94.30;;;;;;4948315;28;20039;-38
2022/05/31 09:57:13;;;;;;;4.15;2.67;;;17.70;94.20;;;;;;4947660;29;20081;-35
2022/05/31 10:00:11;;;;;;;2.25;2.05;;;17.80;94.10;;;;;;4948823;28;20023;-36
2022/05/31 10:02:37;;;;;;;2.17;1.90;;;18.00;93.90;;;;;;4947499;28;20139;-35
2022/05/31 10:05:21;;;;;;;2.92;2.30;;;18.00;93.80;;;;;;4947831;29;20105;-36
2022/05/31 10:07:48;;;;;;;2.65;2.35;;;18.00;93.70;;;;;;4947666;29;20082;-36
2022/05/31 10:10:25;;;;;;;2.60;2.38;;;18.00;93.70;;;;;;4948420;28;20019;-35
2022/05/31 10:12:52;;;;;;;3.30;2.90;;;18.00;93.50;;;;;;4946883;28;20033;-35
2022/05/31 10:15:49;;;;;;;3.08;2.78;;;17.90;93.30;;;;;;4947611;29;20039;-37
2022/05/31 10:18:27;;;;;;;2.47;1.80;;;18.00;93.30;;;;;;4947177;28;20050;-37
2022/05/31 10:21:03;;;;;;;2.22;1.80;;;18.10;93.30;;;;;;4928948;29;20024;-36
2022/05/31 10:23:36;;;;;;;3.75;2.30;;;18.10;93.10;;;;;;4944166;29;20497;-34
2022/05/31 10:26:02;;;;;;;3.05;1.95;;;18.10;92.80;;;;;;4947429;29;20039;-37
2022/05/31 10:28:34;;;;;;;3.22;1.77;;;18.10;92.60;;;;;;4947649;29;20023;-35
2022/05/31 10:31:03;;;;;;;3.08;2.78;;;18.10;92.40;;;;;;4948473;28;20101;-37
2022/05/31 10:33:30;;;;;;;2.03;1.60;;;18.20;91.70;;;;;;4946546;28;20031;-35
2022/05/31 10:36:18;;;;;;;1.60;1.50;;;18.20;92.00;;;;;;4948040;28;20290;-37
2022/05/31 10:38:47;;;;;;;2.00;1.75;;;18.10;91.90;;;;;;4946446;29;20035;-36
2022/05/31 10:41:29;;;;;;;3.10;1.90;;;18.10;91.40;;;;;;4947464;28;20027;-36
2022/05/31 10:44:13;;;;;;;;;;;18.10;91.50;;;;;;4947931;28;20035;-36
2022/05/31 10:46:44;;;;;;;1.98;1.70;;;18.00;91.70;;;;;;4946462;29;19916;-36
2022/05/31 10:49:19;;;;;;;1.98;1.73;;;17.90;91.60;;;;;;4947348;29;20031;-37
2022/05/31 10:52:03;;;;;;;2.92;1.50;;;17.90;91.70;;;;;;4927962;29;20048;-36
2022/05/31 10:54:48;;;;;;;2.28;1.83;;;17.80;91.20;;;;;;4943418;28;20078;-36
2022/05/31 10:57:19;;;;;;;2.10;1.90;;;17.80;91.40;;;;;;4946838;29;20399;-35
2022/05/31 11:00:01;;;;;;;1.70;1.60;;;17.80;91.40;;;;;;4945775;28;20034;-36
2022/05/31 11:03:05;;;;;;;1.95;1.73;;;17.80;91.40;;;;;;4950864;28;20035;-36
2022/05/31 11:05:40;;;;;;;2.33;1.63;;;17.80;91.30;;;;;;4939588;29;20122;-36
2022/05/31 11:11:42;;;;;;;3.75;1.80;;;17.80;90.70;;;;;;4942966;29;20046;-34
2022/05/31 11:14:34;;;;;;;2.70;2.08;;;17.90;90.80;;;;;;4949906;29;20461;-35
2022/05/31 11:17:11;;;;;;;2.10;1.92;;;18.00;90.50;;;;;;4950670;29;20065;-35
2022/05/31 11:20:09;;;;;;;2.45;1.83;;;18.00;90.50;;;;;;4950932;29;20379;-37
2022/05/31 11:22:50;;;;;;;3.60;2.10;;;17.90;90.60;;;;;;4949335;28;20027;-35
2022/05/31 11:25:49;;;;;;;1.88;1.65;;;17.90;90.60;;;;;;4950061;28;20058;-35
2022/05/31 11:28:46;;;;;;;2.65;1.42;;;17.90;90.50;;;;;;4930566;29;20039;-36
2022/05/31 11:31:47;;;;;;;1.63;1.30;;;17.90;90.60;;;;;;4949776;29;20031;-35
2022/05/31 11:34:39;;;;;;;1.92;1.50;;;18.00;90.10;;;;;;4949966;28;20038;-35
2022/05/31 11:37:35;;;;;;;2.22;1.70;;;18.10;90.20;;;;;;4940842;29;20089;-37
2022/05/31 11:40:03;;;;;;;1.95;1.30;;;18.10;90.10;;;;;;4950360;28;20371;-35
2022/05/31 11:42:38;;;;;;;2.17;1.20;;;18.10;88.90;;;;;;4949249;28;20134;-35
2022/05/31 11:45:26;;;;;;;2.35;1.55;;;18.20;89.20;;;;;;4950669;29;20081;-35
2022/05/31 11:48:05;;;;;;;2.00;1.50;;;18.30;89.10;;;;;;4950525;28;20038;-34
2022/05/31 11:51:13;;;;;;;1.55;1.33;;;18.50;89.00;;;;;;4949272;28;20027;-34
2022/05/31 11:53:53;;;;;;;1.60;1.20;;;18.70;88.50;;;;;;4949622;28;20057;-36
2022/05/31 11:56:43;;;;;;;1.80;1.30;;;18.80;88.50;;;;;;4949584;29;20066;-36
2022/05/31 11:59:21;;;;;;;1.63;1.20;;;18.90;88.00;;;;;;4931692;29;20035;-35
2022/05/31 12:01:54;;;;;;;2.90;1.35;;;19.10;87.40;;;;;;4947974;29;20034;-35
2022/05/31 12:04:42;;;;;;;2.70;1.65;;;19.10;86.90;;;;;;4949752;28;20078;-36
2022/05/31 12:07:26;;;;;;;2.00;1.30;;;19.10;85.70;;;;;;4949890;28;20580;-36
2022/05/31 12:10:00;;;;;;;2.45;1.13;;;19.00;85.80;;;;;;4949608;29;20031;-35
2022/05/31 12:12:31;;;;;;;1.52;1.25;;;19.00;85.80;;;;;;4948886;28;20378;-36
2022/05/31 12:15:10;;;;;;;2.17;1.35;;;19.00;85.20;;;;;;4950341;28;20046;-36
2022/05/31 12:17:47;;;;;;;1.48;1.30;;;19.10;84.70;;;;;;4948377;28;20019;-35
2022/05/31 12:20:24;;;;;;;1.45;1.15;;;19.20;84.30;;;;;;4949925;28;20101;-34
2022/05/31 12:23:14;;;;;;;2.03;1.40;;;19.20;83.80;;;;;;4950211;28;20019;-36
2022/05/31 12:25:46;;;;;;;1.73;1.20;;;19.20;82.50;;;;;;4948162;29;20031;-35
2022/05/31 12:28:22;;;;;;;1.77;1.30;;;19.30;82.40;;;;;;4946074;29;20441;-35
2022/05/31 12:31:14;;;;;;;1.33;1.20;;;19.40;82.90;;;;;;4943142;28;20031;-35
2022/05/31 12:33:46;;;;;;;2.67;2.10;;;19.60;82.00;;;;;;4947218;29;20522;-35
2022/05/31 12:36:16;;;;;;;2.47;1.58;;;19.80;82.20;;;;;;4949604;28;20718;-35
2022/05/31 12:39:04;;;;;;;2.13;1.33;;;20.00;81.80;;;;;;4949108;29;20027;-35
2022/05/31 12:41:45;;;;;;;1.70;1.30;;;20.30;81.10;;;;;;4948989;28;20019;-35
2022/05/31 12:44:30;;;;;;;1.73;1.10;;;20.50;80.70;;;;;;4942319;29;20055;-35
2022/05/31 12:47:10;;;;;;;1.95;1.27;;;20.50;80.90;;;;;;4948878;28;20038;-37
2022/05/31 12:49:47;;;;;;;1.33;1.13;;;20.60;80.60;;;;;;4949238;29;20035;-35
2022/05/31 12:54:53;;;;;;;1.17;1.08;;;20.40;79.90;;;;;;4949221;29;20075;-36
2022/05/31 12:57:30;;;;;;;1.27;0.90;;;20.30;80.60;;;;;;4948865;28;20467;-35
2022/05/31 12:59:56;;;;;;;1.48;1.25;;;20.20;80.10;;;;;;4948701;29;20053;-36
2022/05/31 13:02:30;;;;;;;1.23;0.90;;;20.20;79.90;;;;;;4949070;28;20545;-37
2022/05/31 13:04:58;;;;;;;1.85;1.00;;;20.30;79.70;;;;;;4938968;29;20071;-35
2022/05/31 13:07:42;;;;;;;2.78;1.20;;;20.20;79.00;;;;;;4940212;28;20110;-36
2022/05/31 13:10:32;;;;;;;1.02;1.00;;;20.30;79.00;;;;;;4939347;29;20027;-35
2022/05/31 13:21:29;;;;;;;1.38;1.00;;;20.20;78.60;;;;;;4948345;29;20092;-35
2022/05/31 13:23:57;;;;;;;1.77;1.02;;;20.20;78.50;;;;;;4948149;28;20113;-35
2022/05/31 13:26:30;;;;;;;2.25;1.02;;;20.10;78.50;;;;;;4948587;29;20031;-35
2022/05/31 13:28:59;;;;;;;0.98;0.90;;;20.10;78.40;;;;;;4948375;28;20027;-36
2022/05/31 13:31:27;;;;;;;3.13;1.30;;;20.10;78.30;;;;;;4947763;28;20039;-36
2022/05/31 13:34:02;;;;;;;1.60;1.40;;;20.10;77.90;;;;;;4948672;28;20039;-37
2022/05/31 13:36:30;;;;;;;1.55;1.10;;;20.10;77.70;;;;;;4947424;29;20027;-36
2022/05/31 13:39:01;;;;;;;1.60;0.82;;;20.10;77.70;;;;;;4949440;28;20067;-36
2022/05/31 13:41:28;;;;;;;1.73;1.08;;;20.10;77.60;;;;;;4948244;28;20038;-35
2022/05/31 13:44:01;;;;;;;1.70;1.00;;;20.10;77.50;;;;;;4947659;28;20432;-35
2022/05/31 13:46:31;;;;;;;;;;;20.00;77.20;;;;;;4948247;28;20110;-35